Time;durP1;ratioP1;P1;durP2;ratioP2;P2;SDS_P1;SDS_P2;PMS_P1;PMS_P2;Temp;Humidity;BMP_temperature;BMP_pressure;BME280_temperature;BME280_humidity;BME280_pressure;Samples;Min_cycle;Max_cycle;Signal;HPM_P1;HPM_P2
2022/06/19 00:02:20;;;;;;;363.58;218.48;;;;;;;;;;5010728;28;20208;-49
2022/06/19 00:04:49;;;;;;;363.98;224.20;;;;;;;;;;5010181;28;20212;-49
2022/06/19 00:07:15;;;;;;;356.15;224.38;;;;;;;;;;5010581;28;20215;-49
2022/06/19 00:09:41;;;;;;;352.98;225.25;;;;;;;;;;5010427;28;20251;-49
2022/06/19 00:12:08;;;;;;;343.77;216.93;;;;;;;;;;5010514;28;20252;-50
2022/06/19 00:14:34;;;;;;;358.88;217.40;;;;;;;;;;5010715;28;20184;-50
2022/06/19 00:17:04;;;;;;;346.42;216.30;;;;;;;;;;4992679;28;20240;-49
2022/06/19 00:19:30;;;;;;;344.42;220.85;;;;;;;;;;5010158;28;20728;-50
2022/06/19 00:21:56;;;;;;;334.90;216.02;;;;;;;;;;5010005;28;20216;-50
2022/06/19 00:24:22;;;;;;;356.33;224.70;;;;;;;;;;5010288;28;20343;-50
2022/06/19 00:26:48;;;;;;;357.08;225.10;;;;;;;;;;5010219;28;20259;-49
2022/06/19 00:29:14;;;;;;;341.98;216.57;;;;;;;;;;5010562;28;20236;-50
2022/06/19 00:31:40;;;;;;;350.33;217.18;;;;;;;;;;5010233;28;20774;-49
2022/06/19 00:34:06;;;;;;;354.55;220.00;;;;;;;;;;5009761;28;20307;-49
2022/06/19 00:36:32;;;;;;;342.25;210.90;;;;;;;;;;5012618;28;20307;-49
2022/06/19 00:38:59;;;;;;;364.83;226.82;;;;;;;;;;5013766;28;20287;-49
2022/06/19 00:41:25;;;;;;;352.33;215.23;;;;;;;;;;5014210;28;20216;-49
2022/06/19 00:43:58;;;;;;;344.17;212.00;;;;;;;;;;5013863;28;20283;-49
2022/06/19 00:46:39;;;;;;;313.73;200.00;;;;;;;;;;5013883;28;20278;-49
2022/06/19 00:49:09;;;;;;;340.83;210.27;;;;;;;;;;5013709;28;20762;-49
2022/06/19 00:51:34;;;;;;;341.08;208.23;;;;;;;;;;5013814;28;20275;-49
2022/06/19 00:54:01;;;;;;;347.27;215.40;;;;;;;;;;5013739;28;20209;-49
2022/06/19 00:56:28;;;;;;;355.05;220.40;;;;;;;;;;5014067;28;20187;-49
2022/06/19 00:58:54;;;;;;;348.50;217.30;;;;;;;;;;5013323;28;20220;-50
2022/06/19 01:01:22;;;;;;;353.65;212.20;;;;;;;;;;5013497;28;20658;-49
2022/06/19 01:04:09;;;;;;;337.35;206.63;;;;;;;;;;5013506;28;20213;-49
2022/06/19 01:06:36;;;;;;;345.92;206.70;;;;;;;;;;5013492;28;20291;-49
2022/06/19 01:09:02;;;;;;;353.40;210.00;;;;;;;;;;5013183;28;20612;-49
2022/06/19 01:11:31;;;;;;;354.60;215.52;;;;;;;;;;5013793;28;20177;-50
2022/06/19 01:13:58;;;;;;;345.90;207.00;;;;;;;;;;5013734;28;20685;-49
2022/06/19 01:16:24;;;;;;;346.70;208.10;;;;;;;;;;5013299;28;20251;-50
2022/06/19 01:18:50;;;;;;;347.58;211.18;;;;;;;;;;5012931;28;20240;-50
2022/06/19 01:21:16;;;;;;;359.40;217.13;;;;;;;;;;5013010;28;20263;-50
2022/06/19 01:23:47;;;;;;;337.40;205.55;;;;;;;;;;5013490;28;20173;-49
2022/06/19 01:26:14;;;;;;;335.40;202.48;;;;;;;;;;5014015;28;20157;-50
2022/06/19 01:28:54;;;;;;;345.10;204.07;;;;;;;;;;5012858;28;20252;-50
2022/06/19 01:31:20;;;;;;;341.70;202.00;;;;;;;;;;5013213;28;20220;-50
2022/06/19 01:33:47;;;;;;;342.25;202.57;;;;;;;;;;5012657;28;20310;-50
2022/06/19 01:36:14;;;;;;;346.80;203.90;;;;;;;;;;5013200;28;20209;-49
2022/06/19 01:38:42;;;;;;;341.98;201.45;;;;;;;;;;5013114;28;20685;-49
2022/06/19 01:41:12;;;;;;;349.73;205.30;;;;;;;;;;5013190;28;20201;-50
2022/06/19 01:43:38;;;;;;;340.30;206.15;;;;;;;;;;5012947;28;20562;-50
2022/06/19 01:46:04;;;;;;;345.77;202.98;;;;;;;;;;5012239;28;20224;-49
2022/06/19 01:48:32;;;;;;;337.45;199.02;;;;;;;;;;5012386;28;20244;-49
2022/06/19 01:50:58;;;;;;;355.55;208.60;;;;;;;;;;5012720;28;20696;-49
2022/06/19 01:53:27;;;;;;;343.27;201.85;;;;;;;;;;5013099;28;20173;-50
2022/06/19 01:55:54;;;;;;;346.75;203.02;;;;;;;;;;5012790;28;20209;-50
2022/06/19 01:58:21;;;;;;;340.10;201.50;;;;;;;;;;5012153;28;20220;-49
2022/06/19 02:00:48;;;;;;;344.30;201.48;;;;;;;;;;5012524;28;20216;-49
2022/06/19 02:03:25;;;;;;;342.17;201.02;;;;;;;;;;5012067;28;20732;-49
2022/06/19 02:05:51;;;;;;;353.17;201.13;;;;;;;;;;5012593;28;20232;-49
2022/06/19 02:08:17;;;;;;;326.48;193.27;;;;;;;;;;5012635;28;20237;-49
2022/06/19 02:10:45;;;;;;;335.48;194.40;;;;;;;;;;5012010;28;20296;-49
2022/06/19 02:13:12;;;;;;;334.38;189.73;;;;;;;;;;5011987;28;20221;-50
2022/06/19 02:15:38;;;;;;;343.50;194.95;;;;;;;;;;5011864;28;20217;-49
2022/06/19 02:18:06;;;;;;;343.35;198.13;;;;;;;;;;5011881;28;20215;-49
2022/06/19 02:20:31;;;;;;;340.50;194.65;;;;;;;;;;5012417;28;20188;-49
2022/06/19 02:22:58;;;;;;;321.80;188.85;;;;;;;;;;5011728;28;20624;-50
2022/06/19 02:25:25;;;;;;;339.15;192.98;;;;;;;;;;5011999;28;20212;-50
2022/06/19 02:27:51;;;;;;;351.98;199.60;;;;;;;;;;5011427;28;20220;-49
2022/06/19 02:30:17;;;;;;;336.75;191.50;;;;;;;;;;5012167;28;20239;-49
2022/06/19 02:32:45;;;;;;;334.92;196.70;;;;;;;;;;5011573;28;20311;-50
2022/06/19 02:35:17;;;;;;;327.63;193.50;;;;;;;;;;5012052;28;20176;-50
2022/06/19 02:37:45;;;;;;;334.83;189.10;;;;;;;;;;5011506;28;20754;-50
2022/06/19 02:40:23;;;;;;;335.90;190.82;;;;;;;;;;5011486;28;20220;-50
2022/06/19 02:42:49;;;;;;;343.40;194.98;;;;;;;;;;5011644;28;20652;-49
2022/06/19 02:45:23;;;;;;;339.85;196.70;;;;;;;;;;5011625;28;20232;-49
2022/06/19 02:47:50;;;;;;;329.42;194.40;;;;;;;;;;5011119;28;20173;-50
2022/06/19 02:50:18;;;;;;;336.77;196.60;;;;;;;;;;5011879;28;20605;-50
2022/06/19 02:52:44;;;;;;;343.98;200.00;;;;;;;;;;5011244;28;20220;-49
2022/06/19 02:55:11;;;;;;;331.63;195.35;;;;;;;;;;5011361;28;20224;-49
2022/06/19 02:57:38;;;;;;;344.23;199.27;;;;;;;;;;5010669;28;20236;-49
2022/06/19 03:00:05;;;;;;;338.83;194.90;;;;;;;;;;5011201;28;20232;-49
2022/06/19 03:02:32;;;;;;;343.60;196.98;;;;;;;;;;5011449;28;20197;-49
2022/06/19 03:05:02;;;;;;;337.88;197.38;;;;;;;;;;5011041;28;20209;-49
2022/06/19 03:07:29;;;;;;;344.55;199.70;;;;;;;;;;5011145;28;20251;-49
2022/06/19 03:09:55;;;;;;;340.92;193.23;;;;;;;;;;5010787;28;20291;-49
2022/06/19 03:12:20;;;;;;;351.02;198.35;;;;;;;;;;5011046;28;20244;-49
2022/06/19 03:14:47;;;;;;;343.15;201.25;;;;;;;;;;5011147;28;20177;-50
2022/06/19 03:17:17;;;;;;;340.98;197.48;;;;;;;;;;5011415;28;20510;-49
2022/06/19 03:19:43;;;;;;;339.27;198.18;;;;;;;;;;4993099;28;20216;-50
2022/06/19 03:22:10;;;;;;;340.30;198.57;;;;;;;;;;5010685;28;20677;-49
2022/06/19 03:24:37;;;;;;;347.40;199.68;;;;;;;;;;5010826;28;20632;-49
2022/06/19 03:27:03;;;;;;;348.23;202.15;;;;;;;;;;5010668;28;20220;-49
2022/06/19 03:29:29;;;;;;;338.65;197.75;;;;;;;;;;5011316;28;20334;-49
2022/06/19 03:31:55;;;;;;;334.63;197.55;;;;;;;;;;5010595;28;20248;-49
2022/06/19 03:34:20;;;;;;;344.13;203.98;;;;;;;;;;5010479;28;20232;-49
2022/06/19 03:36:46;;;;;;;329.65;194.63;;;;;;;;;;5010854;28;20224;-49
2022/06/19 03:39:12;;;;;;;341.30;200.70;;;;;;;;;;5010584;28;20225;-49
2022/06/19 03:41:38;;;;;;;336.70;198.27;;;;;;;;;;5011387;28;20289;-49
2022/06/19 03:44:05;;;;;;;344.42;201.13;;;;;;;;;;5010957;28;20696;-50
2022/06/19 03:46:31;;;;;;;322.33;187.85;;;;;;;;;;5010594;28;20209;-49
2022/06/19 03:48:57;;;;;;;336.60;196.27;;;;;;;;;;5010465;28;20247;-49
2022/06/19 03:51:23;;;;;;;332.92;191.73;;;;;;;;;;5010248;28;20244;-50
2022/06/19 03:53:53;;;;;;;335.98;193.45;;;;;;;;;;5010600;28;20180;-49
2022/06/19 03:56:21;;;;;;;347.80;206.20;;;;;;;;;;5011033;28;20177;-49
2022/06/19 03:58:47;;;;;;;313.13;184.20;;;;;;;;;;5010228;28;20228;-49
2022/06/19 04:01:13;;;;;;;322.30;193.32;;;;;;;;;;5010511;28;20216;-50
2022/06/19 04:03:39;;;;;;;341.60;194.82;;;;;;;;;;4992564;28;20217;-50
2022/06/19 04:06:05;;;;;;;345.38;198.70;;;;;;;;;;5010196;28;20212;-50
2022/06/19 04:08:31;;;;;;;335.60;191.32;;;;;;;;;;5010603;28;20546;-49
2022/06/19 04:10:57;;;;;;;345.27;193.75;;;;;;;;;;5013725;28;20212;-49
2022/06/19 04:13:23;;;;;;;334.50;191.27;;;;;;;;;;5014222;28;20212;-49
2022/06/19 04:15:49;;;;;;;352.30;201.20;;;;;;;;;;5014063;28;20223;-49
2022/06/19 04:18:15;;;;;;;325.23;192.48;;;;;;;;;;5014096;28;20205;-49
2022/06/19 04:20:40;;;;;;;339.50;196.80;;;;;;;;;;5014586;28;20634;-50
2022/06/19 04:23:09;;;;;;;335.45;194.63;;;;;;;;;;5014018;28;20225;-49
2022/06/19 04:25:35;;;;;;;319.88;187.68;;;;;;;;;;5014105;28;20598;-50
2022/06/19 04:28:01;;;;;;;341.40;198.43;;;;;;;;;;4996446;28;20267;-49
2022/06/19 04:30:27;;;;;;;339.92;197.88;;;;;;;;;;5013857;28;20217;-50
2022/06/19 04:32:53;;;;;;;339.58;200.07;;;;;;;;;;5013651;28;20184;-49
2022/06/19 04:35:19;;;;;;;345.10;194.80;;;;;;;;;;5014415;28;20629;-50
2022/06/19 04:37:45;;;;;;;341.63;195.20;;;;;;;;;;5013683;28;20213;-50
2022/06/19 04:40:12;;;;;;;349.95;200.38;;;;;;;;;;5013778;28;20224;-50
2022/06/19 04:42:38;;;;;;;342.27;197.48;;;;;;;;;;5013683;28;20233;-49
2022/06/19 04:45:04;;;;;;;332.50;195.50;;;;;;;;;;4996235;28;20324;-49
2022/06/19 04:47:30;;;;;;;338.52;199.70;;;;;;;;;;5014037;28;20196;-49
2022/06/19 04:49:56;;;;;;;347.80;207.05;;;;;;;;;;5013473;28;20739;-49
2022/06/19 04:52:22;;;;;;;355.00;214.93;;;;;;;;;;5013470;28;20212;-49
2022/06/19 04:54:48;;;;;;;347.58;206.15;;;;;;;;;;5013778;28;20677;-49
2022/06/19 04:57:14;;;;;;;334.35;196.00;;;;;;;;;;5013689;28;20212;-49
2022/06/19 04:59:40;;;;;;;332.27;195.55;;;;;;;;;;5014071;28;20604;-49
2022/06/19 05:02:06;;;;;;;354.02;210.75;;;;;;;;;;5013258;28;20212;-49
2022/06/19 05:04:32;;;;;;;332.80;191.98;;;;;;;;;;5013159;28;20267;-49
2022/06/19 05:06:58;;;;;;;340.08;196.60;;;;;;;;;;5013085;28;20217;-49
2022/06/19 05:09:24;;;;;;;344.40;200.70;;;;;;;;;;5012974;28;20221;-50
2022/06/19 05:11:50;;;;;;;348.67;203.80;;;;;;;;;;5013476;28;20392;-50
2022/06/19 05:14:16;;;;;;;340.95;200.88;;;;;;;;;;5013862;28;20252;-50
2022/06/19 05:16:42;;;;;;;340.70;197.40;;;;;;;;;;5013142;28;20243;-49
2022/06/19 05:19:11;;;;;;;323.42;193.77;;;;;;;;;;5012968;28;20295;-50
2022/06/19 05:21:37;;;;;;;343.40;202.40;;;;;;;;;;5011929;28;20226;-50
2022/06/19 05:24:04;;;;;;;337.88;197.07;;;;;;;;;;5013416;28;20216;-50
2022/06/19 05:26:31;;;;;;;344.95;200.18;;;;;;;;;;5013434;28;20176;-50
2022/06/19 05:28:57;;;;;;;337.08;199.68;;;;;;;;;;5013124;28;20213;-50
2022/06/19 05:31:24;;;;;;;334.33;199.18;;;;;;;;;;5010159;28;20219;-50
2022/06/19 05:33:51;;;;;;;353.73;210.38;;;;;;;;;;5012168;28;20231;-50
2022/06/19 05:36:17;;;;;;;357.95;210.23;;;;;;;;;;5011192;28;20581;-50
2022/06/19 05:38:43;;;;;;;340.73;202.13;;;;;;;;;;4994092;28;20290;-50
2022/06/19 05:41:09;;;;;;;329.23;201.95;;;;;;;;;;5012770;28;20195;-50
2022/06/19 05:43:36;;;;;;;329.00;210.98;;;;;;;;;;5010722;28;20227;-50
2022/06/19 05:46:03;;;;;;;356.55;225.18;;;;;;;;;;4994638;28;20210;-48
2022/06/19 05:48:30;;;;;;;331.92;199.60;;;;;;;;;;4992425;28;20732;-48
2022/06/19 05:50:56;;;;;;;349.92;211.73;;;;;;;;;;4992402;28;20478;-48
2022/06/19 05:53:22;;;;;;;362.73;227.48;;;;;;;;;;4993181;28;20264;-48
2022/06/19 05:55:48;;;;;;;348.25;215.68;;;;;;;;;;4992855;28;20241;-49
2022/06/19 05:58:14;;;;;;;369.15;229.55;;;;;;;;;;4992084;28;20296;-48
2022/06/19 06:00:40;;;;;;;352.77;219.90;;;;;;;;;;4992753;28;20622;-48
2022/06/19 06:03:06;;;;;;;349.33;217.18;;;;;;;;;;4992457;28;20274;-48
2022/06/19 06:05:32;;;;;;;356.88;231.30;;;;;;;;;;4992779;28;20177;-49
2022/06/19 06:07:58;;;;;;;357.88;227.57;;;;;;;;;;4992429;28;20586;-49
2022/06/19 06:10:24;;;;;;;344.45;212.07;;;;;;;;;;4992601;28;20224;-49
2022/06/19 06:12:50;;;;;;;330.48;209.15;;;;;;;;;;4992446;28;20220;-49
2022/06/19 06:15:15;;;;;;;357.30;226.40;;;;;;;;;;4992714;28;20213;-48
2022/06/19 06:17:41;;;;;;;351.48;227.93;;;;;;;;;;4992707;28;20181;-48
2022/06/19 06:20:08;;;;;;;343.75;220.93;;;;;;;;;;4994080;28;20181;-48
2022/06/19 06:22:33;;;;;;;354.95;230.75;;;;;;;;;;4992450;28;20225;-49
2022/06/19 06:24:59;;;;;;;361.30;236.25;;;;;;;;;;4992857;28;20249;-48
2022/06/19 06:27:25;;;;;;;339.20;228.43;;;;;;;;;;4992974;28;20632;-48
2022/06/19 06:29:51;;;;;;;346.13;236.38;;;;;;;;;;4992475;28;20252;-49
2022/06/19 06:32:17;;;;;;;350.55;235.55;;;;;;;;;;4992850;28;20216;-49
2022/06/19 06:34:43;;;;;;;348.67;230.05;;;;;;;;;;4991928;28;20598;-49
2022/06/19 06:37:09;;;;;;;326.70;222.73;;;;;;;;;;4992429;28;20217;-49
2022/06/19 06:39:35;;;;;;;371.42;244.45;;;;;;;;;;4974502;28;20225;-49
2022/06/19 06:42:01;;;;;;;346.48;233.15;;;;;;;;;;4992352;28;20279;-48
2022/06/19 06:44:27;;;;;;;355.95;244.40;;;;;;;;;;4992463;28;20235;-49
2022/06/19 06:46:53;;;;;;;349.98;244.25;;;;;;;;;;4991989;28;20221;-49
2022/06/19 06:49:19;;;;;;;330.58;240.95;;;;;;;;;;4991688;28;20854;-49
2022/06/19 06:51:45;;;;;;;358.90;242.88;;;;;;;;;;4991629;28;20209;-49
2022/06/19 06:54:11;;;;;;;352.13;239.52;;;;;;;;;;4999506;28;20208;-49
2022/06/19 06:56:37;;;;;;;351.95;242.30;;;;;;;;;;5012058;28;20196;-49
2022/06/19 06:59:03;;;;;;;345.50;241.93;;;;;;;;;;5011079;28;20275;-48
2022/06/19 07:01:29;;;;;;;352.98;252.10;;;;;;;;;;5011365;28;20228;-48
2022/06/19 07:03:55;;;;;;;361.83;265.08;;;;;;;;;;5011068;28;20693;-49
2022/06/19 07:06:28;;;;;;;351.23;259.83;;;;;;;;;;5011376;28;20276;-48
2022/06/19 07:08:54;;;;;;;346.90;238.48;;;;;;;;;;5011287;28;20189;-49
2022/06/19 07:11:21;;;;;;;348.27;237.10;;;;;;;;;;5011608;28;20169;-48
2022/06/19 07:13:47;;;;;;;340.08;234.75;;;;;;;;;;5011435;28;20241;-48
2022/06/19 07:16:13;;;;;;;352.73;246.40;;;;;;;;;;5011219;28;20558;-48
2022/06/19 07:18:39;;;;;;;362.13;244.70;;;;;;;;;;5010911;28;20236;-48
2022/06/19 07:21:05;;;;;;;342.27;238.27;;;;;;;;;;5011082;28;20210;-48
2022/06/19 07:23:31;;;;;;;351.67;250.68;;;;;;;;;;5011423;28;20213;-48
2022/06/19 07:25:57;;;;;;;347.13;241.70;;;;;;;;;;5011121;28;20228;-48
2022/06/19 07:28:23;;;;;;;352.45;246.10;;;;;;;;;;5010716;28;20209;-48
2022/06/19 07:30:49;;;;;;;368.05;253.55;;;;;;;;;;5010990;28;20219;-48
2022/06/19 07:33:15;;;;;;;344.75;244.82;;;;;;;;;;5010725;28;20216;-48
2022/06/19 07:35:41;;;;;;;349.45;251.57;;;;;;;;;;5010940;28;20173;-50
2022/06/19 07:38:07;;;;;;;348.27;250.82;;;;;;;;;;5011420;28;20239;-50
2022/06/19 07:40:33;;;;;;;352.67;266.40;;;;;;;;;;5010659;28;20205;-50
2022/06/19 07:43:00;;;;;;;357.55;265.83;;;;;;;;;;5010565;28;20732;-50
2022/06/19 07:45:26;;;;;;;374.38;281.40;;;;;;;;;;5010294;28;20221;-51
2022/06/19 07:50:36;;;;;;;366.35;280.70;;;;;;;;;;5010927;28;20255;-51
2022/06/19 07:53:02;;;;;;;365.15;277.58;;;;;;;;;;5010609;28;20232;-51
2022/06/19 07:55:30;;;;;;;371.58;273.65;;;;;;;;;;5010762;28;20740;-51
2022/06/19 07:57:58;;;;;;;341.23;268.00;;;;;;;;;;5009604;28;20295;-52
2022/06/19 08:00:26;;;;;;;337.45;263.70;;;;;;;;;;5009726;28;20748;-51
2022/06/19 08:02:53;;;;;;;352.13;273.13;;;;;;;;;;5010682;28;20275;-52
2022/06/19 08:05:20;;;;;;;359.92;274.95;;;;;;;;;;5011020;28;20177;-51
2022/06/19 08:07:47;;;;;;;350.17;270.80;;;;;;;;;;5010890;28;20585;-51
2022/06/19 08:10:17;;;;;;;358.58;280.33;;;;;;;;;;5010836;28;20247;-51
2022/06/19 08:12:44;;;;;;;352.67;275.60;;;;;;;;;;4993422;28;20704;-53
2022/06/19 08:15:10;;;;;;;328.95;266.55;;;;;;;;;;5011080;28;20211;-52
2022/06/19 08:17:36;;;;;;;358.80;282.80;;;;;;;;;;5010922;28;20173;-51
2022/06/19 08:20:02;;;;;;;345.33;270.35;;;;;;;;;;5011014;28;20550;-51
2022/06/19 08:22:28;;;;;;;359.00;280.58;;;;;;;;;;5010474;28;20224;-51
2022/06/19 08:24:54;;;;;;;362.02;284.23;;;;;;;;;;5010900;28;20213;-51
2022/06/19 08:27:20;;;;;;;355.38;286.60;;;;;;;;;;5010931;28;20216;-51
2022/06/19 08:29:46;;;;;;;344.23;275.63;;;;;;;;;;5010848;28;20189;-51
2022/06/19 08:32:12;;;;;;;343.02;276.48;;;;;;;;;;5011420;28;20177;-51
2022/06/19 08:34:37;;;;;;;345.17;284.67;;;;;;;;;;5010289;28;20236;-52
2022/06/19 08:37:06;;;;;;;360.13;291.85;;;;;;;;;;5010910;28;20729;-51
2022/06/19 08:39:33;;;;;;;348.30;289.23;;;;;;;;;;5010455;28;20225;-52
2022/06/19 08:41:58;;;;;;;340.55;282.77;;;;;;;;;;5010318;28;20220;-52
2022/06/19 08:44:54;;;;;;;363.73;292.58;;;;;;;;;;5009720;28;20538;-51
2022/06/19 08:47:20;;;;;;;360.95;300.40;;;;;;;;;;4992892;28;20716;-51
2022/06/19 08:49:52;;;;;;;339.30;279.80;;;;;;;;;;5009789;28;20228;-52
2022/06/19 08:52:30;;;;;;;367.25;300.85;;;;;;;;;;5009945;28;20573;-51
2022/06/19 08:55:08;;;;;;;361.98;310.33;;;;;;;;;;5010158;28;20205;-51
2022/06/19 08:57:49;;;;;;;373.10;308.90;;;;;;;;;;5012107;28;20224;-52
2022/06/19 09:00:18;;;;;;;360.50;296.70;;;;;;;;;;5013558;28;20310;-52
2022/06/19 09:03:08;;;;;;;353.42;296.10;;;;;;;;;;5013211;28;20202;-52
2022/06/19 09:05:46;;;;;;;363.00;293.27;;;;;;;;;;5013579;28;20169;-52
2022/06/19 09:08:31;;;;;;;349.90;287.73;;;;;;;;;;5013706;28;20208;-52
2022/06/19 09:11:03;;;;;;;369.30;300.27;;;;;;;;;;5013361;28;20615;-52
2022/06/19 09:13:29;;;;;;;354.73;289.17;;;;;;;;;;5013740;28;20219;-52
2022/06/19 09:16:02;;;;;;;356.35;292.67;;;;;;;;;;5013723;28;20213;-52
2022/06/19 09:18:31;;;;;;;354.25;291.75;;;;;;;;;;5012148;28;20212;-52
2022/06/19 09:21:06;;;;;;;359.38;304.77;;;;;;;;;;5013016;28;20264;-52
2022/06/19 09:23:35;;;;;;;369.98;329.52;;;;;;;;;;4995735;28;20197;-52
2022/06/19 09:26:13;;;;;;;370.20;330.23;;;;;;;;;;5013061;28;20304;-52
2022/06/19 09:28:45;;;;;;;377.42;336.58;;;;;;;;;;5012704;28;20320;-52
2022/06/19 09:31:26;;;;;;;363.23;325.50;;;;;;;;;;5012847;28;20221;-52
2022/06/19 09:34:02;;;;;;;376.05;336.00;;;;;;;;;;5013068;28;20225;-52
2022/06/19 09:36:46;;;;;;;386.85;345.60;;;;;;;;;;5012893;28;20223;-52
2022/06/19 09:39:23;;;;;;;398.67;356.35;;;;;;;;;;5012479;28;20216;-52
2022/06/19 09:42:08;;;;;;;397.27;355.33;;;;;;;;;;5012680;28;20193;-52
2022/06/19 09:44:34;;;;;;;388.15;346.70;;;;;;;;;;5012994;28;20153;-52
2022/06/19 09:47:14;;;;;;;391.45;350.15;;;;;;;;;;5012532;28;20297;-52
2022/06/19 09:50:00;;;;;;;391.35;349.52;;;;;;;;;;5012336;28;20311;-52
2022/06/19 09:52:31;;;;;;;383.20;343.48;;;;;;;;;;5012525;28;20657;-52
2022/06/19 09:55:03;;;;;;;384.58;342.92;;;;;;;;;;5012690;28;20300;-52
2022/06/19 09:57:35;;;;;;;382.90;341.30;;;;;;;;;;4994965;28;20765;-52
2022/06/19 10:00:01;;;;;;;383.23;341.42;;;;;;;;;;5012221;28;20216;-52
2022/06/19 10:02:46;;;;;;;390.45;348.48;;;;;;;;;;5012635;28;20689;-52
2022/06/19 10:05:29;;;;;;;397.98;356.45;;;;;;;;;;5012426;28;20224;-52
2022/06/19 10:07:58;;;;;;;404.20;361.67;;;;;;;;;;5012648;28;20225;-52
2022/06/19 10:10:28;;;;;;;401.02;359.10;;;;;;;;;;4994934;28;20685;-52
2022/06/19 10:12:56;;;;;;;380.95;340.65;;;;;;;;;;5012412;28;20248;-52
2022/06/19 10:15:41;;;;;;;404.50;362.27;;;;;;;;;;5012178;28;20223;-52
2022/06/19 10:18:09;;;;;;;399.05;357.23;;;;;;;;;;5011811;28;20216;-52
2022/06/19 10:20:49;;;;;;;396.25;354.63;;;;;;;;;;5012737;28;20193;-52
2022/06/19 10:23:22;;;;;;;404.15;362.25;;;;;;;;;;5012008;28;20213;-52
2022/06/19 10:25:59;;;;;;;386.23;344.40;;;;;;;;;;5012134;28;20727;-52
2022/06/19 10:28:33;;;;;;;392.02;350.58;;;;;;;;;;5011845;28;20704;-52
2022/06/19 10:31:09;;;;;;;395.85;354.52;;;;;;;;;;5012134;28;20212;-53
2022/06/19 10:33:55;;;;;;;383.00;342.33;;;;;;;;;;5011727;28;20784;-52
2022/06/19 10:36:23;;;;;;;368.88;329.58;;;;;;;;;;5011661;28;20224;-52
2022/06/19 10:39:03;;;;;;;395.33;353.52;;;;;;;;;;5011621;28;20193;-51
2022/06/19 10:44:25;;;;;;;409.35;367.63;;;;;;;;;;4992029;28;20288;-52
2022/06/19 10:46:57;;;;;;;390.40;349.35;;;;;;;;;;4988297;28;20216;-52
2022/06/19 10:49:35;;;;;;;391.27;349.85;;;;;;;;;;5011184;28;20231;-52
2022/06/19 10:52:09;;;;;;;401.98;359.58;;;;;;;;;;5011542;28;20228;-52
2022/06/19 10:54:46;;;;;;;387.98;346.48;;;;;;;;;;5011273;28;20711;-52
2022/06/19 10:57:34;;;;;;;384.00;343.15;;;;;;;;;;5011630;28;20266;-52
2022/06/19 11:00:00;;;;;;;388.42;347.63;;;;;;;;;;5011361;28;20224;-52
2022/06/19 11:05:30;;;;;;;387.85;346.33;;;;;;;;;;5011152;28;20236;-52
2022/06/19 11:07:56;;;;;;;393.13;352.38;;;;;;;;;;5011220;28;20240;-52
2022/06/19 11:10:29;;;;;;;396.20;355.48;;;;;;;;;;5010923;28;20223;-52
2022/06/19 11:12:57;;;;;;;388.23;345.63;;;;;;;;;;5010603;28;20209;-52
2022/06/19 11:15:26;;;;;;;380.75;339.80;;;;;;;;;;5010896;28;20212;-52
2022/06/19 11:18:12;;;;;;;393.27;352.52;;;;;;;;;;5010469;28;20224;-52
2022/06/19 11:20:39;;;;;;;388.13;347.20;;;;;;;;;;5010294;28;20319;-52
2022/06/19 11:23:07;;;;;;;395.60;354.17;;;;;;;;;;5011349;28;20254;-52
2022/06/19 11:25:34;;;;;;;384.48;346.60;;;;;;;;;;5011133;28;20401;-52
2022/06/19 11:28:03;;;;;;;397.80;356.30;;;;;;;;;;5010629;28;20292;-52
2022/06/19 11:30:41;;;;;;;405.38;362.48;;;;;;;;;;5010731;28;20216;-52
2022/06/19 11:33:17;;;;;;;400.88;359.48;;;;;;;;;;5010520;28;20220;-52
2022/06/19 11:35:43;;;;;;;406.75;365.15;;;;;;;;;;5010628;28;20172;-52
2022/06/19 11:38:09;;;;;;;401.00;359.40;;;;;;;;;;5011190;28;20251;-53
2022/06/19 11:40:37;;;;;;;431.38;388.40;;;;;;;;;;5010713;28;20327;-53
2022/06/19 11:43:04;;;;;;;434.58;392.17;;;;;;;;;;5010364;28;20244;-53
2022/06/19 11:45:34;;;;;;;433.02;390.73;;;;;;;;;;5010829;28;20640;-52
2022/06/19 11:48:02;;;;;;;416.90;375.85;;;;;;;;;;5010461;28;20633;-52
2022/06/19 11:50:35;;;;;;;437.42;394.67;;;;;;;;;;5011059;28;20176;-52
2022/06/19 11:53:01;;;;;;;411.83;370.73;;;;;;;;;;5010939;28;20224;-52
2022/06/19 11:55:41;;;;;;;418.55;379.80;;;;;;;;;;5011383;28;20287;-52
2022/06/19 11:58:16;;;;;;;408.98;368.35;;;;;;;;;;5010431;28;20216;-52
2022/06/19 12:00:43;;;;;;;434.55;392.35;;;;;;;;;;5010643;28;20262;-52
2022/06/19 12:03:21;;;;;;;446.55;404.00;;;;;;;;;;5010191;28;20685;-53
2022/06/19 12:05:55;;;;;;;442.75;400.83;;;;;;;;;;5010074;28;20197;-53
2022/06/19 12:08:27;;;;;;;422.23;380.67;;;;;;;;;;5010740;28;20198;-53
2022/06/19 12:10:56;;;;;;;417.38;375.30;;;;;;;;;;5010228;28;20217;-52
2022/06/19 12:13:26;;;;;;;415.30;374.27;;;;;;;;;;5010108;28;20626;-53
2022/06/19 12:16:04;;;;;;;423.25;380.80;;;;;;;;;;5010373;28;20224;-53
2022/06/19 12:18:31;;;;;;;412.58;372.40;;;;;;;;;;5010181;28;20412;-52
2022/06/19 12:21:17;;;;;;;414.27;373.50;;;;;;;;;;5010006;28;20232;-53
2022/06/19 12:23:45;;;;;;;421.08;379.08;;;;;;;;;;5010237;28;20531;-53
2022/06/19 12:26:16;;;;;;;424.55;382.05;;;;;;;;;;5008257;28;20581;-53
2022/06/19 12:28:49;;;;;;;438.23;396.42;;;;;;;;;;5007883;28;20307;-53
2022/06/19 12:31:17;;;;;;;437.20;393.80;;;;;;;;;;5011521;28;20223;-53
2022/06/19 12:33:45;;;;;;;446.02;403.02;;;;;;;;;;5013200;28;20704;-53
2022/06/19 12:36:13;;;;;;;454.75;410.50;;;;;;;;;;4995211;28;20217;-53
2022/06/19 12:38:40;;;;;;;444.52;402.45;;;;;;;;;;5013585;28;20212;-53
2022/06/19 12:41:30;;;;;;;437.42;394.83;;;;;;;;;;5013643;28;20215;-53
2022/06/19 12:44:05;;;;;;;443.58;400.05;;;;;;;;;;4993901;28;20750;-53
2022/06/19 12:46:37;;;;;;;439.95;396.48;;;;;;;;;;4993449;28;20224;-53
2022/06/19 12:49:10;;;;;;;437.42;394.88;;;;;;;;;;4993810;28;20311;-53
2022/06/19 12:51:47;;;;;;;441.10;397.42;;;;;;;;;;5004406;28;20220;-52
2022/06/19 12:54:13;;;;;;;441.98;398.33;;;;;;;;;;5011362;28;20224;-53
2022/06/19 12:57:02;;;;;;;453.88;411.20;;;;;;;;;;5013333;28;20216;-53
2022/06/19 12:59:42;;;;;;;436.77;395.13;;;;;;;;;;5013336;28;20296;-53
2022/06/19 13:02:14;;;;;;;438.77;396.10;;;;;;;;;;5013289;28;20282;-53
2022/06/19 13:04:58;;;;;;;437.38;395.67;;;;;;;;;;5013281;28;20308;-53
2022/06/19 13:07:26;;;;;;;432.73;391.33;;;;;;;;;;5013198;28;20594;-53
2022/06/19 13:10:02;;;;;;;446.90;403.10;;;;;;;;;;5013119;28;20277;-53
2022/06/19 13:12:31;;;;;;;453.73;411.63;;;;;;;;;;5013631;28;20621;-53
2022/06/19 13:15:16;;;;;;;469.35;426.25;;;;;;;;;;5013570;28;20307;-53
2022/06/19 13:18:08;;;;;;;472.05;426.27;;;;;;;;;;4999210;28;20220;-53
2022/06/19 13:20:38;;;;;;;456.05;413.88;;;;;;;;;;5010893;28;20259;-53
2022/06/19 13:23:18;;;;;;;462.45;418.52;;;;;;;;;;5008636;28;20225;-54
2022/06/19 13:25:49;;;;;;;459.40;416.88;;;;;;;;;;4993398;28;20225;-53
2022/06/19 13:28:15;;;;;;;454.88;412.58;;;;;;;;;;5009181;28;20227;-53
2022/06/19 13:30:46;;;;;;;490.05;445.15;;;;;;;;;;5012860;28;20212;-53
2022/06/19 13:33:25;;;;;;;477.20;433.75;;;;;;;;;;5012286;28;20299;-53
2022/06/19 13:35:51;;;;;;;476.92;433.75;;;;;;;;;;5012778;28;20216;-53
2022/06/19 13:38:35;;;;;;;471.83;429.40;;;;;;;;;;5012879;28;20705;-53
2022/06/19 13:41:20;;;;;;;466.95;425.23;;;;;;;;;;5013644;28;20215;-53
2022/06/19 13:43:59;;;;;;;454.48;412.15;;;;;;;;;;5011910;28;20219;-52
2022/06/19 13:46:34;;;;;;;466.70;423.13;;;;;;;;;;5011624;28;20284;-53
2022/06/19 13:49:10;;;;;;;463.73;420.60;;;;;;;;;;5013193;28;20688;-53
2022/06/19 13:51:57;;;;;;;460.00;416.98;;;;;;;;;;5012154;28;20220;-53
2022/06/19 13:54:52;;;;;;;462.17;418.42;;;;;;;;;;5012306;28;20308;-53
2022/06/19 13:57:42;;;;;;;456.58;414.52;;;;;;;;;;4995059;28;20220;-53
2022/06/19 14:00:17;;;;;;;435.35;396.60;;;;;;;;;;5013211;28;20775;-52
2022/06/19 14:02:55;;;;;;;441.73;399.85;;;;;;;;;;5012301;28;20558;-53
2022/06/19 14:05:27;;;;;;;448.75;405.98;;;;;;;;;;5012062;28;20232;-53
2022/06/19 14:07:53;;;;;;;447.40;405.58;;;;;;;;;;5012356;28;20220;-53
2022/06/19 14:10:26;;;;;;;452.27;409.83;;;;;;;;;;5012563;28;20169;-53
2022/06/19 14:13:08;;;;;;;448.95;406.40;;;;;;;;;;5012386;28;20197;-53
2022/06/19 14:15:57;;;;;;;469.55;424.23;;;;;;;;;;5012080;28;20239;-53